Time;durP1;ratioP1;P1;durP2;ratioP2;P2;SDS_P1;SDS_P2;PMS_P1;PMS_P2;Temp;Humidity;BMP_temperature;BMP_pressure;BME280_temperature;BME280_humidity;BME280_pressure;Samples;Min_cycle;Max_cycle;Signal;HPM_P1;HPM_P2
2023/12/06 00:02:22;;;;;;;;;;;0.10;99.90;;;;;;5038893;28;20011;-91
2023/12/06 00:04:47;;;;;;;;;;;0.10;99.90;;;;;;5072358;28;20397;-91
2023/12/06 00:07:13;;;;;;;;;;;0.10;99.90;;;;;;5056702;28;19924;-91
2023/12/06 00:09:39;;;;;;;;;;;0.10;99.90;;;;;;5039125;28;19928;-90
2023/12/06 00:12:04;;;;;;;;;;;0.20;99.90;;;;;;5038101;28;19927;-91
2023/12/06 00:14:30;;;;;;;;;;;0.10;99.90;;;;;;5035832;28;19951;-91
2023/12/06 00:16:56;;;;;;;;;;;0.10;99.90;;;;;;5054385;28;20299;-91
2023/12/06 00:19:22;;;;;;;;;;;0.10;99.90;;;;;;5039625;28;19928;-91
2023/12/06 00:21:48;;;;;;;;;;;0.10;99.90;;;;;;5037204;28;20579;-91
2023/12/06 00:24:13;;;;;;;;;;;1.30;99.90;;;;;;5038488;28;19972;-90
2023/12/06 00:26:42;;;;;;;;;;;0.20;99.90;;;;;;5054760;28;19920;-92
2023/12/06 00:29:07;;;;;;;;;;;0.20;99.90;;;;;;5023855;28;19980;-91
2023/12/06 00:31:33;;;;;;;;;;;2.00;99.90;;;;;;5049937;28;19979;-91
2023/12/06 00:33:59;;;;;;;;;;;0.50;99.90;;;;;;5025932;28;19948;-90
2023/12/06 00:36:24;;;;;;;;;;;0.20;99.90;;;;;;5051197;28;20157;-90
2023/12/06 00:38:50;;;;;;;;;;;0.10;99.90;;;;;;5072249;28;20019;-91
2023/12/06 00:41:15;;;;;;;;;;;1.10;99.90;;;;;;5038223;28;19959;-91
2023/12/06 00:43:41;;;;;;;;;;;0.10;99.90;;;;;;5055743;28;19920;-91
2023/12/06 00:46:07;;;;;;;;;;;-1.20;99.90;;;;;;5047359;28;19976;-92
2023/12/06 00:48:32;;;;;;;;;;;1.20;99.90;;;;;;5033406;28;19985;-91
2023/12/06 00:50:58;;;;;;;;;;;1.60;99.90;;;;;;5032176;28;19925;-91
2023/12/06 00:53:24;;;;;;;;;;;1.70;99.90;;;;;;5034373;28;19924;-91
2023/12/06 00:55:49;;;;;;;;;;;1.40;99.90;;;;;;5034298;28;20023;-92
2023/12/06 00:58:15;;;;;;;;;;;1.60;99.90;;;;;;5038266;28;19925;-91
2023/12/06 01:00:41;;;;;;;;;;;0.30;99.90;;;;;;5037749;28;20007;-91
2023/12/06 01:03:06;;;;;;;;;;;1.60;99.90;;;;;;5034063;28;20398;-91
2023/12/06 01:05:32;;;;;;;;;;;1.40;99.90;;;;;;5055296;28;19924;-91
2023/12/06 01:07:57;;;;;;;;;;;2.00;99.90;;;;;;5046604;28;19928;-92
2023/12/06 01:10:23;;;;;;;;;;;2.00;99.90;;;;;;5036968;28;19928;-92
2023/12/06 01:12:49;;;;;;;;;;;0.10;99.90;;;;;;5037770;28;19943;-91
2023/12/06 01:15:14;;;;;;;;;;;0.20;99.90;;;;;;5038564;28;20371;-91
2023/12/06 01:17:40;;;;;;;;;;;0.10;99.90;;;;;;5054878;28;19924;-91
2023/12/06 01:20:06;;;;;;;;;;;1.20;99.90;;;;;;5038391;28;19925;-91
2023/12/06 01:22:32;;;;;;;;;;;0.10;99.90;;;;;;5038770;28;19946;-91
2023/12/06 01:24:58;;;;;;;;;;;1.80;99.90;;;;;;5054558;28;19973;-92
2023/12/06 01:27:23;;;;;;;;;;;0.10;99.90;;;;;;5074553;28;19924;-92
2023/12/06 01:29:49;;;;;;;;;;;0.10;99.90;;;;;;5014927;28;19921;-92
2023/12/06 01:32:14;;;;;;;;;;;0.20;99.90;;;;;;5055232;28;19921;-92
2023/12/06 01:34:40;;;;;;;;;;;-0.90;99.90;;;;;;5054896;28;19924;-92
2023/12/06 01:37:06;;;;;;;;;;;0.20;99.90;;;;;;5036742;28;20311;-92
2023/12/06 01:39:31;;;;;;;;;;;1.70;99.90;;;;;;5041634;28;19932;-92
2023/12/06 01:41:57;;;;;;;;;;;0.20;99.90;;;;;;5036367;28;19928;-92
2023/12/06 01:44:22;;;;;;;;;;;0.20;99.90;;;;;;5040568;28;19920;-92
2023/12/06 01:46:48;;;;;;;;;;;0.50;99.90;;;;;;5054885;28;19971;-92
2023/12/06 01:49:14;;;;;;;;;;;0.20;99.90;;;;;;5038949;28;19920;-93
2023/12/06 01:51:40;;;;;;;;;;;1.10;99.90;;;;;;5044774;28;19940;-92
2023/12/06 01:54:05;;;;;;;;;;;1.40;99.90;;;;;;5055296;28;19921;-92
2023/12/06 01:56:31;;;;;;;;;;;-0.20;99.90;;;;;;5052186;28;19960;-91
2023/12/06 01:58:58;;;;;;;;;;;1.70;99.90;;;;;;5038163;28;20291;-92
2023/12/06 02:01:24;;;;;;;;;;;1.20;99.90;;;;;;5053986;28;19929;-91
2023/12/06 02:03:50;;;;;;;;;;;0.60;99.90;;;;;;5036558;28;19920;-91
2023/12/06 02:06:16;;;;;;;;;;;0.30;99.90;;;;;;5052724;28;20000;-91
2023/12/06 02:08:43;;;;;;;;;;;1.40;99.90;;;;;;5037049;28;19925;-91
2023/12/06 02:11:09;;;;;;;;;;;1.80;99.90;;;;;;5059027;28;19927;-91
2023/12/06 02:13:35;;;;;;;;;;;0.30;99.90;;;;;;5041956;28;19921;-91
2023/12/06 02:16:01;;;;;;;;;;;0.30;99.90;;;;;;5058566;28;19928;-92
2023/12/06 02:18:27;;;;;;;;;;;0.30;99.90;;;;;;5075454;28;19928;-92
2023/12/06 02:20:53;;;;;;;;;;;1.50;99.90;;;;;;5058736;28;19927;-92
2023/12/06 02:23:20;;;;;;;;;;;0.30;99.90;;;;;;5059122;28;19925;-91
2023/12/06 02:25:46;;;;;;;;;;;0.30;99.90;;;;;;5074638;28;19972;-91
2023/12/06 02:28:12;;;;;;;;;;;0.50;99.90;;;;;;5059778;28;19924;-92
2023/12/06 02:30:37;;;;;;;;;;;0.40;99.90;;;;;;5059024;28;20054;-91
2023/12/06 02:33:03;;;;;;;;;;;0.40;99.90;;;;;;5036506;28;19924;-91
2023/12/06 02:35:30;;;;;;;;;;;0.40;99.90;;;;;;5037648;28;19920;-92
2023/12/06 02:37:57;;;;;;;;;;;0.60;99.90;;;;;;5056808;28;19989;-92
2023/12/06 02:40:25;;;;;;;;;;;1.70;99.90;;;;;;5069241;28;19920;-93
2023/12/06 02:42:51;;;;;;;;;;;0.40;99.90;;;;;;5076188;28;19935;-92
2023/12/06 02:45:16;;;;;;;;;;;1.80;99.90;;;;;;5059907;28;19924;-91
2023/12/06 02:47:42;;;;;;;;;;;0.40;99.90;;;;;;5072728;28;19932;-92
2023/12/06 02:50:08;;;;;;;;;;;2.00;99.90;;;;;;5054815;28;19998;-92
2023/12/06 02:52:33;;;;;;;;;;;0.40;99.90;;;;;;5072816;28;20015;-91
2023/12/06 02:54:59;;;;;;;;;;;0.40;99.90;;;;;;5072818;28;19924;-91
2023/12/06 02:57:25;;;;;;;;;;;2.20;99.90;;;;;;5050571;28;19935;-91
2023/12/06 02:59:50;;;;;;;;;;;1.50;99.90;;;;;;5041499;28;19932;-91
2023/12/06 03:02:16;;;;;;;;;;;0.40;99.90;;;;;;5053545;28;19960;-91
2023/12/06 03:04:42;;;;;;;;;;;0.40;99.90;;;;;;5058279;28;19929;-92
2023/12/06 03:07:07;;;;;;;;;;;0.40;99.90;;;;;;5074566;28;19920;-91
2023/12/06 03:09:33;;;;;;;;;;;1.70;99.90;;;;;;5052501;28;19928;-91
2023/12/06 03:11:58;;;;;;;;;;;0.50;99.90;;;;;;5057264;28;19921;-90
2023/12/06 03:14:24;;;;;;;;;;;0.60;99.90;;;;;;5039893;28;19924;-92
2023/12/06 03:16:49;;;;;;;;;;;0.50;99.90;;;;;;5057934;28;20398;-91
2023/12/06 03:19:15;;;;;;;;;;;0.50;99.90;;;;;;5041657;28;20009;-91
2023/12/06 03:21:41;;;;;;;;;;;0.50;99.90;;;;;;5073250;28;19926;-91
2023/12/06 03:24:06;;;;;;;;;;;2.40;99.90;;;;;;5043556;28;20007;-92
2023/12/06 03:26:32;;;;;;;;;;;0.50;99.90;;;;;;5041855;28;20367;-91
2023/12/06 03:28:57;;;;;;;;;;;0.50;99.90;;;;;;5041092;28;19920;-89
2023/12/06 03:31:23;;;;;;;;;;;0.50;99.90;;;;;;5040959;28;19978;-91
2023/12/06 03:33:48;;;;;;;;;;;0.50;99.90;;;;;;5037875;28;20257;-90
2023/12/06 03:36:14;;;;;;;;;;;2.00;99.90;;;;;;5041473;28;19928;-91
2023/12/06 03:38:40;;;;;;;;;;;0.50;99.90;;;;;;5057727;28;19981;-91
2023/12/06 03:41:05;;;;;;;;;;;0.50;99.90;;;;;;5040567;28;19995;-91
2023/12/06 03:43:31;;;;;;;;;;;1.90;99.90;;;;;;5074474;28;20278;-90
2023/12/06 03:45:56;;;;;;;;;;;1.60;99.90;;;;;;5071603;28;19931;-91
2023/12/06 03:48:22;;;;;;;;;;;1.20;99.90;;;;;;5073992;28;19931;-90
2023/12/06 03:50:48;;;;;;;;;;;0.50;99.90;;;;;;5039491;28;19921;-90
2023/12/06 03:53:13;;;;;;;;;;;0.50;99.90;;;;;;5055268;28;19972;-91
2023/12/06 03:55:39;;;;;;;;;;;0.60;99.90;;;;;;5037713;28;19931;-90
2023/12/06 03:58:06;;;;;;;;;;;0.50;99.90;;;;;;5041478;28;20571;-90
2023/12/06 04:00:31;;;;;;;;;;;0.50;99.90;;;;;;5042648;28;20015;-90
2023/12/06 04:02:57;;;;;;;;;;;0.50;99.90;;;;;;5037635;28;19983;-90
2023/12/06 04:05:23;;;;;;;;;;;0.70;99.90;;;;;;5052942;28;19924;-90
2023/12/06 04:07:49;;;;;;;;;;;0.50;99.90;;;;;;5056987;28;19920;-91
2023/12/06 04:10:14;;;;;;;;;;;0.50;99.90;;;;;;5054872;28;20011;-91
2023/12/06 04:12:40;;;;;;;;;;;0.70;99.90;;;;;;5055428;28;20007;-91
2023/12/06 04:15:06;;;;;;;;;;;0.70;99.90;;;;;;5055841;28;19924;-91
2023/12/06 04:17:32;;;;;;;;;;;0.50;99.90;;;;;;5039636;28;19920;-90
2023/12/06 04:19:57;;;;;;;;;;;0.60;99.90;;;;;;5054546;28;19982;-91
2023/12/06 04:22:23;;;;;;;;;;;1.20;99.90;;;;;;5038575;28;19924;-90
2023/12/06 04:24:48;;;;;;;;;;;0.70;99.90;;;;;;5070632;28;19924;-90
2023/12/06 04:27:14;;;;;;;;;;;0.60;99.90;;;;;;5038667;28;19920;-89
2023/12/06 04:29:40;;;;;;;;;;;0.60;99.90;;;;;;5051904;28;19927;-90
2023/12/06 04:32:05;;;;;;;;;;;0.80;99.90;;;;;;5039379;28;20356;-90
2023/12/06 04:34:32;;;;;;;;;;;0.70;99.90;;;;;;5035455;28;19920;-90
2023/12/06 04:36:57;;;;;;;;;;;0.60;99.90;;;;;;5037696;28;19930;-90
2023/12/06 04:39:23;;;;;;;;;;;1.40;99.90;;;;;;5055138;28;19928;-91
2023/12/06 04:41:49;;;;;;;;;;;0.60;99.90;;;;;;5050178;28;20368;-91
2023/12/06 04:44:14;;;;;;;;;;;0.60;99.90;;;;;;5055776;28;19925;-90
2023/12/06 04:46:40;;;;;;;;;;;1.90;99.90;;;;;;5038470;28;19927;-90
2023/12/06 04:49:06;;;;;;;;;;;0.60;99.90;;;;;;5038480;28;20314;-90
2023/12/06 04:51:31;;;;;;;;;;;2.20;99.90;;;;;;5055346;28;19925;-91
2023/12/06 04:53:57;;;;;;;;;;;0.60;99.90;;;;;;5056055;28;19925;-89
2023/12/06 04:56:22;;;;;;;;;;;0.90;99.90;;;;;;5056080;28;19928;-90
2023/12/06 04:58:48;;;;;;;;;;;2.00;99.90;;;;;;5048095;28;19932;-90
2023/12/06 05:01:14;;;;;;;;;;;0.70;99.90;;;;;;5052050;28;19920;-90
2023/12/06 05:03:40;;;;;;;;;;;2.10;99.90;;;;;;5054248;28;20398;-90
2023/12/06 05:06:06;;;;;;;;;;;1.90;99.90;;;;;;5037493;28;19967;-89
2023/12/06 05:08:31;;;;;;;;;;;0.60;99.90;;;;;;5037690;28;19927;-91
2023/12/06 05:10:57;;;;;;;;;;;0.60;99.90;;;;;;5054334;28;19973;-91
2023/12/06 05:13:23;;;;;;;;;;;2.00;99.90;;;;;;5051484;28;20007;-90
2023/12/06 05:15:48;;;;;;;;;;;0.70;99.90;;;;;;5067901;28;19921;-89
2023/12/06 05:18:14;;;;;;;;;;;1.90;99.90;;;;;;5036174;28;19920;-87
2023/12/06 05:20:39;;;;;;;;;;;2.40;99.90;;;;;;5037136;28;19930;-89
2023/12/06 05:23:05;;;;;;;;;;;1.20;99.90;;;;;;5043508;28;19921;-88
2023/12/06 05:25:32;;;;;;;;;;;0.70;99.90;;;;;;5036076;28;19981;-89
2023/12/06 05:27:58;;;;;;;;;;;0.60;99.90;;;;;;5037399;28;19920;-89
2023/12/06 05:30:24;;;;;;;;;;;0.60;99.90;;;;;;5046957;28;19943;-89
2023/12/06 05:32:50;;;;;;;;;;;0.60;99.90;;;;;;5034572;28;19931;-88
2023/12/06 05:35:15;;;;;;;;;;;1.50;99.90;;;;;;5052093;28;19920;-86
2023/12/06 05:37:41;;;;;;;;;;;1.70;99.90;;;;;;5048649;28;19978;-88
2023/12/06 05:40:07;;;;;;;;;;;0.60;99.90;;;;;;5053626;28;20019;-89
2023/12/06 05:42:32;;;;;;;;;;;0.70;99.90;;;;;;5037064;28;20003;-90
2023/12/06 05:44:58;;;;;;;;;;;0.60;99.90;;;;;;5034958;28;20283;-89
2023/12/06 05:47:25;;;;;;;;;;;0.70;99.90;;;;;;5047077;28;19920;-88
2023/12/06 05:49:51;;;;;;;;;;;0.70;99.90;;;;;;5034644;28;19921;-88
2023/12/06 05:52:16;;;;;;;;;;;0.70;99.90;;;;;;5043439;28;19944;-89
2023/12/06 05:54:42;;;;;;;;;;;0.70;99.90;;;;;;5053155;28;19957;-89
2023/12/06 05:57:07;;;;;;;;;;;0.70;99.90;;;;;;5050559;28;20023;-89
2023/12/06 05:59:33;;;;;;;;;;;0.80;99.90;;;;;;5047055;28;20363;-89
2023/12/06 06:01:59;;;;;;;;;;;0.80;99.90;;;;;;5036587;28;20073;-89
2023/12/06 06:04:26;;;;;;;;;;;0.80;99.90;;;;;;5051296;28;19925;-96
2023/12/06 06:06:51;;;;;;;;;;;0.80;99.90;;;;;;5050444;28;19920;-90
2023/12/06 06:09:17;;;;;;;;;;;0.80;99.90;;;;;;5028519;28;20003;-94
2023/12/06 06:11:43;;;;;;;;;;;0.80;99.90;;;;;;5024548;28;19962;-92
2023/12/06 06:14:09;;;;;;;;;;;0.80;99.90;;;;;;5062194;28;19927;-90
2023/12/06 06:16:35;;;;;;;;;;;0.80;99.90;;;;;;5064268;28;20011;-93
2023/12/06 06:19:00;;;;;;;;;;;0.80;99.90;;;;;;5028963;28;19978;-93
2023/12/06 06:21:26;;;;;;;;;;;0.80;99.90;;;;;;5048772;28;19952;-92
2023/12/06 06:23:52;;;;;;;;;;;0.80;99.90;;;;;;5053706;28;19971;-93
2023/12/06 06:26:17;;;;;;;;;;;0.80;99.90;;;;;;5053704;28;19971;-89
2023/12/06 06:28:43;;;;;;;;;;;0.80;99.90;;;;;;5053120;28;19932;-89
2023/12/06 06:31:09;;;;;;;;;;;0.80;99.90;;;;;;5045067;28;19931;-89
2023/12/06 06:33:35;;;;;;;;;;;0.80;99.90;;;;;;5050867;28;19920;-89
2023/12/06 06:36:01;;;;;;;;;;;0.80;99.90;;;;;;5062876;28;19931;-89
2023/12/06 06:38:26;;;;;;;;;;;0.80;99.90;;;;;;5044612;28;19971;-89
2023/12/06 06:40:52;;;;;;;;;;;0.70;99.90;;;;;;5051825;28;19924;-93
2023/12/06 06:43:18;;;;;;;;;;;0.80;99.90;;;;;;5044914;28;19928;-93
2023/12/06 06:45:43;;;;;;;;;;;1.30;99.90;;;;;;5045100;28;20015;-93
2023/12/06 06:48:09;;;;;;;;;;;0.80;99.90;;;;;;5066635;28;19975;-94
2023/12/06 06:50:40;;;;;;;;;;;1.90;99.90;;;;;;5081189;28;19981;-93
2023/12/06 06:53:09;;;;;;;;;;;1.00;99.90;;;;;;5052559;28;19920;-94
2023/12/06 06:55:35;;;;;;;;;;;0.90;99.90;;;;;;5051534;28;19931;-93
2023/12/06 06:58:03;;;;;;;;;;;1.70;99.90;;;;;;5049946;28;19979;-93
2023/12/06 07:00:29;;;;;;;;;;;0.90;99.90;;;;;;5045585;28;19925;-94
2023/12/06 07:02:54;;;;;;;;;;;0.90;99.90;;;;;;5040310;28;19960;-92
2023/12/06 07:05:20;;;;;;;;;;;1.90;99.90;;;;;;5042905;28;19971;-92
2023/12/06 07:07:45;;;;;;;;;;;1.00;99.90;;;;;;5034105;28;19921;-92
2023/12/06 07:10:11;;;;;;;;;;;0.90;99.90;;;;;;5040234;28;19921;-92
2023/12/06 07:12:37;;;;;;;;;;;1.10;99.90;;;;;;5034241;28;19921;-95
2023/12/06 07:15:03;;;;;;;;;;;1.00;99.90;;;;;;5042245;28;19924;-91
2023/12/06 07:17:32;;;;;;;;;;;1.10;99.90;;;;;;5071437;28;19921;-94
2023/12/06 07:19:58;;;;;;;;;;;2.10;99.90;;;;;;5038490;28;19924;-93
2023/12/06 07:22:24;;;;;;;;;;;1.20;99.90;;;;;;5057204;28;19924;-93
2023/12/06 07:24:50;;;;;;;;;;;1.10;99.90;;;;;;5062834;28;20011;-93
2023/12/06 07:27:15;;;;;;;;;;;1.10;99.90;;;;;;5067536;28;19920;-92
2023/12/06 07:29:44;;;;;;;;;;;1.10;99.90;;;;;;5055663;28;20317;-93
2023/12/06 07:32:10;;;;;;;;;;;2.80;99.90;;;;;;5064760;28;19920;-92
2023/12/06 07:34:35;;;;;;;;;;;1.20;99.90;;;;;;5037357;28;19931;-92
2023/12/06 07:37:01;;;;;;;;;;;1.70;99.90;;;;;;5029819;28;20367;-92
2023/12/06 07:39:26;;;;;;;;;;;1.20;99.90;;;;;;5055856;28;19929;-94
2023/12/06 07:41:52;;;;;;;;;;;1.20;99.90;;;;;;5048532;28;19927;-93
2023/12/06 07:44:20;;;;;;;;;;;1.30;99.90;;;;;;5055388;28;20551;-93
2023/12/06 07:46:46;;;;;;;;;;;1.20;99.90;;;;;;5038820;28;20363;-95
2023/12/06 07:49:15;;;;;;;;;;;1.20;99.90;;;;;;5057797;28;19929;-93
2023/12/06 07:51:41;;;;;;;;;;;1.20;99.90;;;;;;5056657;28;20007;-93
2023/12/06 07:54:06;;;;;;;;;;;1.20;99.90;;;;;;5066845;28;19980;-91
2023/12/06 07:56:33;;;;;;;;;;;1.20;99.90;;;;;;5048841;28;19967;-93
2023/12/06 07:59:00;;;;;;;;;;;1.30;99.90;;;;;;5056954;28;19931;-94
2023/12/06 08:01:31;;;;;;;;;;;2.40;99.90;;;;;;5058155;28;19974;-94
2023/12/06 08:04:00;;;;;;;;;;;1.20;99.90;;;;;;5023849;28;19978;-94
2023/12/06 08:06:26;;;;;;;;;;;1.20;99.90;;;;;;5045842;28;20342;-91
2023/12/06 08:08:53;;;;;;;;;;;1.60;99.90;;;;;;5036657;28;19925;-91
2023/12/06 08:11:19;;;;;;;;;;;1.70;99.90;;;;;;5052158;28;19951;-91
2023/12/06 08:13:46;;;;;;;;;;;1.20;99.90;;;;;;5053929;28;19921;-91
2023/12/06 08:16:12;;;;;;;;;;;1.20;99.90;;;;;;5062280;28;20456;-91
2023/12/06 08:18:37;;;;;;;;;;;1.30;99.90;;;;;;5056310;28;20015;-93
2023/12/06 08:21:04;;;;;;;;;;;2.00;99.90;;;;;;5053869;28;19925;-95
2023/12/06 08:23:29;;;;;;;;;;;0.90;99.90;;;;;;5055769;28;19920;-91
2023/12/06 08:25:55;;;;;;;;;;;1.50;99.90;;;;;;5053402;28;19952;-90
2023/12/06 08:28:21;;;;;;;;;;;2.30;99.90;;;;;;5039750;28;19926;-92
2023/12/06 08:30:46;;;;;;;;;;;1.30;99.90;;;;;;5055388;28;19927;-90
2023/12/06 08:33:13;;;;;;;;;;;1.40;99.90;;;;;;5036262;28;19925;-90
2023/12/06 08:35:39;;;;;;;;;;;1.40;99.90;;;;;;5067025;28;20015;-89
2023/12/06 08:38:05;;;;;;;;;;;2.20;99.90;;;;;;5055502;28;20115;-90
2023/12/06 08:40:31;;;;;;;;;;;1.40;99.90;;;;;;5038735;28;19924;-91
2023/12/06 08:42:57;;;;;;;;;;;1.70;99.90;;;;;;5018873;28;19924;-89
2023/12/06 08:45:22;;;;;;;;;;;1.50;99.90;;;;;;5039133;28;19921;-89
2023/12/06 08:47:48;;;;;;;;;;;1.40;99.90;;;;;;5053302;28;20338;-88
2023/12/06 08:50:14;;;;;;;;;;;1.40;99.90;;;;;;5045688;28;20011;-90
2023/12/06 08:52:42;;;;;;;;;;;1.40;99.90;;;;;;5072854;28;19920;-92
2023/12/06 08:55:07;;;;;;;;;;;2.10;99.90;;;;;;5019897;28;20183;-89
2023/12/06 08:57:33;;;;;;;;;;;1.40;99.90;;;;;;5060013;28;19935;-92
2023/12/06 08:59:59;;;;;;;;;;;1.40;99.90;;;;;;5054424;28;19928;-91
2023/12/06 09:02:24;;;;;;;;;;;1.40;99.90;;;;;;5053211;28;19992;-92
2023/12/06 09:04:51;;;;;;;;;;;1.40;99.90;;;;;;5066726;28;19969;-94
2023/12/06 09:07:17;;;;;;;;;;;1.40;99.90;;;;;;5035556;28;20410;-94
2023/12/06 09:09:46;;;;;;;;;;;1.40;99.90;;;;;;5067821;28;20005;-91
2023/12/06 09:12:11;;;;;;;;;;;1.40;99.90;;;;;;5056056;28;19921;-90
2023/12/06 09:14:37;;;;;;;;;;;1.40;99.90;;;;;;5054262;28;19930;-91
2023/12/06 09:17:02;;;;;;;;;;;1.60;99.90;;;;;;5072345;28;20175;-94
2023/12/06 09:19:29;;;;;;;;;;;1.40;99.90;;;;;;5053729;28;19997;-92
2023/12/06 09:21:54;;;;;;;;;;;1.40;99.90;;;;;;5028495;28;19920;-95
2023/12/06 09:24:20;;;;;;;;;;;1.40;99.90;;;;;;5038431;28;19931;-91
2023/12/06 09:26:45;;;;;;;;;;;2.60;99.90;;;;;;5036682;28;19920;-92
2023/12/06 09:29:11;;;;;;;;;;;1.50;99.90;;;;;;5035532;28;20003;-90
2023/12/06 09:31:37;;;;;;;;;;;1.50;99.90;;;;;;5019345;28;19924;-90
2023/12/06 09:34:04;;;;;;;;;;;1.50;99.90;;;;;;5035290;28;19928;-89
2023/12/06 09:36:30;;;;;;;;;;;3.10;99.90;;;;;;5051466;28;19920;-89
2023/12/06 09:38:59;;;;;;;;;;;1.60;99.90;;;;;;5038224;28;20011;-91
2023/12/06 09:41:28;;;;;;;;;;;1.60;99.90;;;;;;5052437;28;19920;-90
2023/12/06 09:43:54;;;;;;;;;;;1.60;99.90;;;;;;5038033;28;19931;-89
2023/12/06 09:46:20;;;;;;;;;;;1.70;99.90;;;;;;5046668;28;19921;-91
2023/12/06 09:48:46;;;;;;;;;;;2.50;99.90;;;;;;5038417;28;19984;-91
2023/12/06 09:51:12;;;;;;;;;;;2.70;99.90;;;;;;5037374;28;19924;-90
2023/12/06 09:53:38;;;;;;;;;;;1.80;99.90;;;;;;5037777;28;19921;-89
2023/12/06 09:56:04;;;;;;;;;;;3.30;99.90;;;;;;5034311;28;19928;-91
2023/12/06 09:58:30;;;;;;;;;;;1.80;99.90;;;;;;5031265;28;19951;-89
2023/12/06 10:00:57;;;;;;;;;;;2.30;99.90;;;;;;5038390;28;20386;-91
2023/12/06 10:03:23;;;;;;;;;;;1.80;99.90;;;;;;5049926;28;20375;-91
2023/12/06 10:05:56;;;;;;;;;;;1.80;99.90;;;;;;5020133;28;19925;-90
2023/12/06 10:08:22;;;;;;;;;;;1.80;99.90;;;;;;5038650;28;20364;-90
2023/12/06 10:10:48;;;;;;;;;;;1.80;99.90;;;;;;5038547;28;19931;-94
2023/12/06 10:13:13;;;;;;;;;;;1.80;99.90;;;;;;5022189;28;19924;-92
2023/12/06 10:15:39;;;;;;;;;;;2.00;99.90;;;;;;5038158;28;19921;-91
2023/12/06 10:18:05;;;;;;;;;;;2.30;99.90;;;;;;5054380;28;19970;-91
2023/12/06 10:20:30;;;;;;;;;;;1.90;99.90;;;;;;5053267;28;19934;-91
2023/12/06 10:22:56;;;;;;;;;;;1.80;99.90;;;;;;5052964;28;20332;-91
2023/12/06 10:25:22;;;;;;;;;;;1.80;99.90;;;;;;5043080;28;19935;-92
2023/12/06 10:27:48;;;;;;;;;;;1.80;99.90;;;;;;5019428;28;20673;-92
2023/12/06 10:30:19;;;;;;;;;;;1.80;99.90;;;;;;5028545;28;19924;-92
2023/12/06 10:32:45;;;;;;;;;;;1.80;99.90;;;;;;5021720;28;20172;-93
2023/12/06 10:35:11;;;;;;;;;;;1.80;99.90;;;;;;5002203;28;19954;-94
2023/12/06 10:37:37;;;;;;;;;;;1.90;99.90;;;;;;5015402;28;20364;-93
2023/12/06 10:40:10;;;;;;;;;;;1.90;99.90;;;;;;5038344;28;19928;-93
2023/12/06 10:42:36;;;;;;;;;;;1.80;99.90;;;;;;5021251;28;19920;-92
2023/12/06 10:45:03;;;;;;;;;;;1.90;99.90;;;;;;4993478;28;20020;-93
2023/12/06 10:47:29;;;;;;;;;;;1.90;99.90;;;;;;5024271;28;20015;-92
2023/12/06 10:49:56;;;;;;;;;;;2.10;99.90;;;;;;5019439;28;19920;-92
2023/12/06 10:52:22;;;;;;;;;;;1.90;99.90;;;;;;5019099;28;19920;-93
2023/12/06 10:54:49;;;;;;;;;;;1.90;99.90;;;;;;5013383;28;19922;-93
2023/12/06 10:57:15;;;;;;;;;;;1.90;99.90;;;;;;5024456;28;19928;-94
2023/12/06 10:59:41;;;;;;;;;;;1.90;99.90;;;;;;5037872;28;19977;-95
2023/12/06 11:02:08;;;;;;;;;;;1.90;99.90;;;;;;5016246;28;20630;-93
2023/12/06 11:04:36;;;;;;;;;;;1.90;99.90;;;;;;5021699;28;20459;-93
2023/12/06 11:07:06;;;;;;;;;;;2.00;99.90;;;;;;5032245;28;19932;-93
2023/12/06 11:09:36;;;;;;;;;;;2.00;99.90;;;;;;5031265;28;20519;-92
2023/12/06 11:12:05;;;;;;;;;;;2.00;99.90;;;;;;5037777;28;19928;-92
2023/12/06 11:14:43;;;;;;;;;;;2.10;99.90;;;;;;5021035;28;20367;-94
2023/12/06 11:17:44;;;;;;;;;;;2.10;99.90;;;;;;5039373;28;19974;-95
2023/12/06 11:20:10;;;;;;;;;;;2.20;99.90;;;;;;4961844;28;19934;-94
2023/12/06 11:22:37;;;;;;;;;;;3.50;99.90;;;;;;4996245;28;19921;-91
2023/12/06 11:25:03;;;;;;;;;;;2.30;99.90;;;;;;5029669;28;19928;-92
2023/12/06 11:27:29;;;;;;;;;;;2.20;99.90;;;;;;5039156;28;19920;-94
2023/12/06 11:29:55;;;;;;;;;;;2.20;99.90;;;;;;5038357;28;19981;-92
2023/12/06 11:32:21;;;;;;;;;;;2.20;99.90;;;;;;5038262;28;19924;-91
2023/12/06 11:34:55;;;;;;;;;;;2.20;99.90;;;;;;5019365;28;19920;-91
2023/12/06 11:37:22;;;;;;;;;;;2.20;99.90;;;;;;5050475;28;19920;-91
2023/12/06 11:39:48;;;;;;;;;;;2.20;99.90;;;;;;5040241;28;19940;-92
2023/12/06 11:42:20;;;;;;;;;;;2.20;99.90;;;;;;5040983;28;19968;-92
2023/12/06 11:44:54;;;;;;;;;;;2.20;99.90;;;;;;5030907;28;19920;-93
2023/12/06 11:47:25;;;;;;;;;;;2.20;99.90;;;;;;5040813;28;19920;-93
2023/12/06 11:49:52;;;;;;;;;;;2.20;99.90;;;;;;5040230;28;19966;-91
2023/12/06 11:52:18;;;;;;;;;;;2.20;99.90;;;;;;5040578;28;19995;-91
2023/12/06 11:54:44;;;;;;;;;;;2.20;99.90;;;;;;5022996;28;19967;-92
2023/12/06 11:57:11;;;;;;;;;;;2.40;99.90;;;;;;5014526;28;19946;-96
2023/12/06 11:59:36;;;;;;;;;;;2.30;99.90;;;;;;5023374;28;19956;-94
2023/12/06 12:02:02;;;;;;;;;;;2.20;99.90;;;;;;5040342;28;19924;-91
2023/12/06 12:04:28;;;;;;;;;;;2.20;99.90;;;;;;5036570;28;19944;-91
2023/12/06 12:06:54;;;;;;;;;;;2.40;99.90;;;;;;5037326;28;19968;-92
2023/12/06 12:09:20;;;;;;;;;;;2.20;99.90;;;;;;5039221;28;20270;-91
2023/12/06 12:11:46;;;;;;;;;;;2.30;99.90;;;;;;5040216;28;19931;-92
2023/12/06 12:14:12;;;;;;;;;;;2.70;99.90;;;;;;5057848;28;19924;-92
2023/12/06 12:16:39;;;;;;;;;;;2.20;99.90;;;;;;5040322;28;19931;-95
2023/12/06 12:19:06;;;;;;;;;;;2.30;99.90;;;;;;5056536;28;19925;-95
2023/12/06 12:21:32;;;;;;;;;;;2.30;99.90;;;;;;5040157;28;19924;-92
2023/12/06 12:24:00;;;;;;;;;;;2.30;99.90;;;;;;5038563;28;19928;-90
2023/12/06 12:26:26;;;;;;;;;;;2.30;99.90;;;;;;5055938;28;19920;-89
2023/12/06 12:28:52;;;;;;;;;;;2.30;99.90;;;;;;5017847;28;20380;-90
2023/12/06 12:31:20;;;;;;;;;;;2.30;99.90;;;;;;5008677;28;20407;-90
2023/12/06 12:33:45;;;;;;;;;;;2.30;99.90;;;;;;5022528;28;19980;-92
2023/12/06 12:36:12;;;;;;;;;;;2.40;99.90;;;;;;5036515;28;19963;-93
2023/12/06 12:38:40;;;;;;;;;;;3.10;99.90;;;;;;5040069;28;20019;-91
2023/12/06 12:41:09;;;;;;;;;;;2.30;99.90;;;;;;5039276;28;19920;-91
2023/12/06 12:43:35;;;;;;;;;;;2.30;99.90;;;;;;5039172;28;19920;-91
2023/12/06 12:46:00;;;;;;;;;;;2.80;99.90;;;;;;5023316;28;20495;-91
2023/12/06 12:48:26;;;;;;;;;;;2.30;99.90;;;;;;5039468;28;19928;-93
2023/12/06 12:51:12;;;;;;;;;;;2.40;99.90;;;;;;5038243;28;19968;-91
2023/12/06 12:53:38;;;;;;;;;;;2.40;99.90;;;;;;5034091;28;19924;-91
2023/12/06 12:56:04;;;;;;;;;;;2.50;99.90;;;;;;5037794;28;19925;-91
2023/12/06 12:58:32;;;;;;;;;;;2.40;99.90;;;;;;5037313;28;19927;-91
2023/12/06 13:00:59;;;;;;;;;;;2.30;99.90;;;;;;5022342;28;19928;-91
2023/12/06 13:03:28;;;;;;;;;;;2.30;99.90;;;;;;5053517;28;19924;-91
2023/12/06 13:05:53;;;;;;;;;;;2.40;99.90;;;;;;5039415;28;19947;-91
2023/12/06 13:08:19;;;;;;;;;;;2.40;99.90;;;;;;5021688;28;20330;-93
2023/12/06 13:10:48;;;;;;;;;;;2.40;99.90;;;;;;5037346;28;19960;-91
2023/12/06 13:13:15;;;;;;;;;;;2.40;99.90;;;;;;5021696;28;19924;-90
2023/12/06 13:15:41;;;;;;;;;;;2.40;99.90;;;;;;5038456;28;19985;-91
2023/12/06 13:18:08;;;;;;;;;;;2.40;99.90;;;;;;5053113;28;19931;-90
2023/12/06 13:20:33;;;;;;;;;;;3.20;99.90;;;;;;5016433;28;19986;-91
2023/12/06 13:22:59;;;;;;;;;;;2.40;99.90;;;;;;5022649;28;20375;-91
2023/12/06 13:25:25;;;;;;;;;;;2.40;99.90;;;;;;5017803;28;19931;-92
2023/12/06 13:27:50;;;;;;;;;;;1.70;99.90;;;;;;5013429;28;19920;-92
2023/12/06 13:30:17;;;;;;;;;;;2.40;99.90;;;;;;5022792;28;19921;-91
2023/12/06 13:32:43;;;;;;;;;;;2.40;99.90;;;;;;5012817;28;19924;-91
2023/12/06 13:35:11;;;;;;;;;;;2.40;99.90;;;;;;5037358;28;19920;-91
2023/12/06 13:37:37;;;;;;;;;;;2.40;99.90;;;;;;5039016;28;19925;-90
2023/12/06 13:40:03;;;;;;;;;;;2.50;99.90;;;;;;5036748;28;19928;-91
2023/12/06 13:42:29;;;;;;;;;;;2.40;99.90;;;;;;5036365;28;19970;-92
2023/12/06 13:44:54;;;;;;;;;;;2.80;99.90;;;;;;5027481;28;20273;-91
2023/12/06 13:47:20;;;;;;;;;;;2.40;99.90;;;;;;5020368;28;19920;-93
2023/12/06 13:49:46;;;;;;;;;;;2.40;99.90;;;;;;5035060;28;19928;-91
2023/12/06 13:52:14;;;;;;;;;;;2.40;99.90;;;;;;5054555;28;20496;-93
2023/12/06 13:54:40;;;;;;;;;;;2.40;99.90;;;;;;5054405;28;20435;-91
2023/12/06 13:57:07;;;;;;;;;;;2.40;99.90;;;;;;5018662;28;19993;-89
2023/12/06 13:59:32;;;;;;;;;;;2.40;99.90;;;;;;5021455;28;19951;-90
2023/12/06 14:01:58;;;;;;;;;;;2.30;99.90;;;;;;5037960;28;19921;-89
2023/12/06 14:04:24;;;;;;;;;;;2.40;99.90;;;;;;5022257;28;19924;-91
2023/12/06 14:06:53;;;;;;;;;;;2.50;99.90;;;;;;5060124;28;19968;-88
2023/12/06 14:09:18;;;;;;;;;;;2.40;99.90;;;;;;5028140;28;19920;-88
2023/12/06 14:11:44;;;;;;;;;;;2.40;99.90;;;;;;5043767;28;19928;-88
2023/12/06 14:14:10;;;;;;;;;;;2.40;99.90;;;;;;5045411;28;19921;-89
2023/12/06 14:16:36;;;;;;;;;;;2.40;99.90;;;;;;5026622;28;19921;-90
2023/12/06 14:19:01;;;;;;;;;;;2.90;99.90;;;;;;5045218;28;20583;-89
2023/12/06 14:21:27;;;;;;;;;;;2.30;99.90;;;;;;5043736;28;19932;-91
2023/12/06 14:23:52;;;;;;;;;;;2.30;99.90;;;;;;5045110;28;19943;-89
2023/12/06 14:26:21;;;;;;;;;;;2.30;99.90;;;;;;5045087;28;19932;-92